createdAt,value
2019-02-06T00:00:56.099Z,28.92
2019-02-06T00:03:25.900Z,36.45
2019-02-06T00:05:55.549Z,26.00
2019-02-06T00:08:25.284Z,29.25
2019-02-06T00:10:54.938Z,29.72
2019-02-06T00:13:24.600Z,30.72
2019-02-06T00:15:54.577Z,25.88
2019-02-06T00:18:24.271Z,33.15
2019-02-06T00:20:53.915Z,24.80
2019-02-06T00:23:23.592Z,31.45
2019-02-06T00:25:53.259Z,38.05
2019-02-06T00:28:22.909Z,29.82
2019-02-06T00:30:52.940Z,27.05
2019-02-06T00:33:22.609Z,29.50
2019-02-06T00:35:52.319Z,25.75
2019-02-06T00:38:21.956Z,25.97
2019-02-06T00:40:51.600Z,24.92
2019-02-06T00:43:21.277Z,26.65
2019-02-06T00:45:51.015Z,30.37
2019-02-06T00:48:20.807Z,26.65
2019-02-06T00:50:50.710Z,33.58
2019-02-06T00:53:20.330Z,27.25
2019-02-06T00:55:50.090Z,28.80
2019-02-06T00:58:19.739Z,27.00
2019-02-06T01:00:49.472Z,26.65
2019-02-06T01:03:19.155Z,24.10
2019-02-06T01:05:48.894Z,27.42
2019-02-06T01:08:18.576Z,26.75
2019-02-06T01:10:48.222Z,27.37
2019-02-06T01:13:17.924Z,25.23
2019-02-06T01:15:47.582Z,25.27
2019-02-06T01:18:17.262Z,25.32
2019-02-06T01:20:46.932Z,25.97
2019-02-06T01:23:16.615Z,19.50
2019-02-06T01:25:46.250Z,28.55
2019-02-06T01:28:16.035Z,24.05
2019-02-06T01:30:50.377Z,29.00
2019-02-06T01:33:20.155Z,22.95
2019-02-06T01:35:50.383Z,20.65
2019-02-06T01:38:20.134Z,28.47
2019-02-06T01:40:49.834Z,22.17
2019-02-06T01:43:19.874Z,22.15
2019-02-06T01:45:49.585Z,22.67
2019-02-06T01:48:19.195Z,29.50
2019-02-06T01:50:49.016Z,29.55
2019-02-06T01:53:18.680Z,21.57
2019-02-06T01:55:48.379Z,25.52
2019-02-06T01:58:18.381Z,24.15
2019-02-06T02:00:48.077Z,26.68
2019-02-06T02:03:17.748Z,26.85
2019-02-06T02:05:47.426Z,29.20
2019-02-06T02:08:17.119Z,23.18
2019-02-06T02:10:46.803Z,29.40
2019-02-06T02:13:16.548Z,23.00
2019-02-06T02:15:46.170Z,23.10
2019-02-06T02:18:15.838Z,25.43
2019-02-06T02:20:45.480Z,23.42
2019-02-06T02:23:15.162Z,23.30
2019-02-06T02:25:44.814Z,28.98
2019-02-06T02:28:14.797Z,24.15
2019-02-06T02:30:50.441Z,25.57
2019-02-06T02:33:20.445Z,23.90
2019-02-06T02:35:50.106Z,21.40
2019-02-06T02:38:19.808Z,22.77
2019-02-06T02:40:49.734Z,24.90
2019-02-06T02:43:19.360Z,18.92
2019-02-06T02:45:49.049Z,23.62
2019-02-06T02:48:18.728Z,24.18
2019-02-06T02:50:48.419Z,21.12
2019-02-06T02:53:18.063Z,20.77
2019-02-06T02:55:47.737Z,26.40
2019-02-06T02:58:17.369Z,18.62
2019-02-06T03:01:12.968Z,21.65
2019-02-06T03:03:59.921Z,22.75
2019-02-06T03:06:29.558Z,24.57
2019-02-06T03:08:59.167Z,22.55
2019-02-06T03:11:28.823Z,22.20
2019-02-06T03:13:58.456Z,27.07
2019-02-06T03:16:28.125Z,28.50
2019-02-06T03:18:57.775Z,23.98
2019-02-06T03:21:27.500Z,22.22
2019-02-06T03:23:57.120Z,23.90
2019-02-06T03:26:26.783Z,23.85
2019-02-06T03:28:56.438Z,27.13
2019-02-06T03:31:26.129Z,25.50
2019-02-06T03:33:55.743Z,27.13
2019-02-06T03:36:25.452Z,29.92
2019-02-06T03:38:55.060Z,27.98
2019-02-06T03:41:24.735Z,25.08
2019-02-06T03:43:54.349Z,28.30
2019-02-06T03:46:24.377Z,27.93
2019-02-06T03:48:54.020Z,25.52
2019-02-06T03:51:23.705Z,27.67
2019-02-06T03:53:53.462Z,26.15
2019-02-06T03:56:23.149Z,25.02
2019-02-06T03:58:52.790Z,30.88
2019-02-06T04:01:22.520Z,23.47
2019-02-06T04:03:51.997Z,24.30
2019-02-06T04:06:21.465Z,25.85
2019-02-06T04:08:50.970Z,22.35
2019-02-06T04:11:20.784Z,28.35
2019-02-06T04:13:50.609Z,25.27
2019-02-06T04:16:20.090Z,27.52
2019-02-06T04:18:49.833Z,25.82
2019-02-06T04:21:20.698Z,25.68
2019-02-06T04:23:50.667Z,26.75
2019-02-06T04:26:20.117Z,27.50
2019-02-06T04:28:49.698Z,31.17
2019-02-06T04:31:20.396Z,23.02
2019-02-06T04:33:49.996Z,29.02
2019-02-06T04:36:19.568Z,24.18
2019-02-06T04:38:49.379Z,32.83
2019-02-06T04:41:18.924Z,30.35
2019-02-06T04:43:48.431Z,30.27
2019-02-06T04:46:19.046Z,36.68
2019-02-06T04:48:49.744Z,28.67
2019-02-06T04:51:19.238Z,28.23
2019-02-06T04:53:48.768Z,34.08
2019-02-06T04:56:18.545Z,41.55
2019-02-06T04:58:48.110Z,39.63
2019-02-06T05:01:17.864Z,37.93
2019-02-06T05:03:47.309Z,41.48
2019-02-06T05:06:16.848Z,43.98
2019-02-06T05:08:46.362Z,40.33
2019-02-06T05:11:16.019Z,39.70
2019-02-06T05:13:46.280Z,38.35
2019-02-06T05:16:16.029Z,37.20
2019-02-06T05:18:45.554Z,46.48
2019-02-06T05:21:15.101Z,43.20
2019-02-06T05:23:45.328Z,46.63
2019-02-06T05:26:14.804Z,44.60
2019-02-06T05:28:44.286Z,40.20
2019-02-06T05:31:14.014Z,44.27
2019-02-06T05:33:43.706Z,46.15
2019-02-06T05:36:13.415Z,40.60
2019-02-06T05:38:43.046Z,51.50
2019-02-06T05:41:12.444Z,50.17
2019-02-06T05:43:42.176Z,45.15
2019-02-06T05:46:13.664Z,56.55
2019-02-06T05:48:44.998Z,50.67
2019-02-06T05:51:15.793Z,48.48
2019-02-06T05:53:45.537Z,46.35
2019-02-06T05:56:15.212Z,47.38
2019-02-06T05:58:44.812Z,46.95
2019-02-06T06:01:14.618Z,45.65
2019-02-06T06:03:44.143Z,46.08
2019-02-06T06:06:13.648Z,48.63
2019-02-06T06:08:43.140Z,48.80
2019-02-06T06:11:14.112Z,56.13
2019-02-06T06:13:43.573Z,49.35
2019-02-06T06:16:13.352Z,52.33
2019-02-06T06:18:43.513Z,55.08
2019-02-06T06:21:13.494Z,55.58
2019-02-06T06:23:43.320Z,50.48
2019-02-06T06:26:13.113Z,54.55
2019-02-06T06:28:43.111Z,58.05
2019-02-06T06:31:13.004Z,53.90
2019-02-06T06:33:43.806Z,58.75
2019-02-06T06:36:13.645Z,63.00
2019-02-06T06:38:43.367Z,52.55
2019-02-06T06:41:13.137Z,57.43
2019-02-06T06:43:42.702Z,57.78
2019-02-06T06:46:12.992Z,61.68
2019-02-06T06:48:42.579Z,57.98
2019-02-06T06:51:12.314Z,61.65
2019-02-06T06:53:42.239Z,61.33
2019-02-06T06:56:11.884Z,66.05
2019-02-06T06:58:41.488Z,63.90
2019-02-06T07:01:12.866Z,59.83
2019-02-06T07:03:54.753Z,62.70
2019-02-06T07:06:24.516Z,60.67
2019-02-06T07:08:54.181Z,61.20
2019-02-06T07:11:23.864Z,64.30
2019-02-06T07:13:53.550Z,57.30
2019-02-06T07:16:23.303Z,57.15
2019-02-06T07:18:52.861Z,59.53
2019-02-06T07:21:59.674Z,59.40
2019-02-06T07:24:29.428Z,57.10
2019-02-06T07:26:58.980Z,55.05
2019-02-06T07:29:28.813Z,60.80
2019-02-06T07:31:58.395Z,49.70
2019-02-06T07:34:27.970Z,61.75
2019-02-06T07:36:57.678Z,54.95
2019-02-06T07:39:27.299Z,54.45
2019-02-06T07:41:57.093Z,58.42
2019-02-06T07:44:26.780Z,54.38
2019-02-06T07:46:56.498Z,51.00
2019-02-06T07:49:26.156Z,54.38
2019-02-06T07:51:55.843Z,51.15
2019-02-06T07:54:25.485Z,55.17
2019-02-06T07:56:55.192Z,57.53
2019-02-06T07:59:24.777Z,51.20
2019-02-06T08:01:54.397Z,53.10
2019-02-06T08:04:23.952Z,45.17
2019-02-06T08:06:53.576Z,54.03
2019-02-06T08:09:23.137Z,55.65
2019-02-06T08:11:52.932Z,54.65
2019-02-06T08:14:22.519Z,51.73
2019-02-06T08:16:52.173Z,48.90
2019-02-06T08:19:21.830Z,50.20
2019-02-06T08:21:51.533Z,53.65
2019-02-06T08:24:21.184Z,49.75
2019-02-06T08:26:50.783Z,48.35
2019-02-06T08:29:20.424Z,54.63
2019-02-06T08:31:50.006Z,46.42
2019-02-06T08:34:19.637Z,50.08
2019-02-06T08:36:49.343Z,52.10
2019-02-06T08:39:19.134Z,44.75
2019-02-06T08:41:48.757Z,51.98
2019-02-06T08:44:18.405Z,48.13
2019-02-06T08:46:48.105Z,49.50
2019-02-06T08:49:18.024Z,48.38
2019-02-06T08:51:47.833Z,46.75
2019-02-06T08:54:20.293Z,47.33
2019-02-06T08:56:48.849Z,49.63
2019-02-06T08:59:18.506Z,40.50
2019-02-06T09:01:48.345Z,47.73
2019-02-06T09:04:18.392Z,40.45
2019-02-06T09:06:48.099Z,42.98
2019-02-06T09:09:17.618Z,42.10
2019-02-06T09:11:47.490Z,52.13
2019-02-06T09:14:17.113Z,42.62
2019-02-06T09:16:46.884Z,50.90
2019-02-06T09:19:16.763Z,52.03
2019-02-06T09:21:46.453Z,40.15
2019-02-06T09:24:16.110Z,39.53
2019-02-06T09:26:45.824Z,44.83
2019-02-06T09:29:15.405Z,42.73
2019-02-06T09:31:45.181Z,39.95
2019-02-06T09:34:15.222Z,42.85
2019-02-06T09:36:44.891Z,42.17
2019-02-06T09:39:14.630Z,42.25
2019-02-06T09:41:44.302Z,40.88
2019-02-06T09:44:13.991Z,35.38
2019-02-06T09:46:43.679Z,35.75
2019-02-06T09:49:15.141Z,38.20
2019-02-06T09:51:44.970Z,42.48
2019-02-06T09:54:14.660Z,40.12
2019-02-06T09:56:44.267Z,36.08
2019-02-06T09:59:13.949Z,41.45
2019-02-06T10:01:43.608Z,36.93
2019-02-06T10:04:13.635Z,35.45
2019-02-06T10:06:46.310Z,40.17
2019-02-06T10:09:22.864Z,35.33
2019-02-06T10:11:50.674Z,35.65
2019-02-06T10:14:20.277Z,36.33
2019-02-06T10:16:49.714Z,38.83
2019-02-06T10:19:22.140Z,33.00
2019-02-06T10:21:53.746Z,36.53
2019-02-06T10:24:24.291Z,38.17
2019-02-06T10:26:54.203Z,39.92
2019-02-06T10:29:24.070Z,34.98
2019-02-06T10:31:53.859Z,36.53
2019-02-06T10:34:23.521Z,34.88
2019-02-06T10:36:53.523Z,35.20
2019-02-06T10:39:33.967Z,33.80
2019-02-06T10:41:54.513Z,32.10
2019-02-06T10:44:24.145Z,37.98
2019-02-06T10:46:55.770Z,34.63
2019-02-06T10:49:25.375Z,31.40
2019-02-06T10:51:55.058Z,32.00
2019-02-06T10:54:24.814Z,34.43
2019-02-06T10:56:54.375Z,26.30
2019-02-06T10:59:24.051Z,34.73
2019-02-06T11:01:53.620Z,28.70
2019-02-06T11:04:23.274Z,35.95
2019-02-06T11:06:54.368Z,31.55
2019-02-06T11:09:23.952Z,26.35
2019-02-06T11:11:53.547Z,29.80
2019-02-06T11:14:23.718Z,25.97
2019-02-06T11:16:53.309Z,23.12
2019-02-06T11:19:23.454Z,21.40
2019-02-06T11:21:53.227Z,25.37
2019-02-06T11:24:26.664Z,23.75
2019-02-06T11:26:55.018Z,23.60
2019-02-06T11:29:24.943Z,20.40
2019-02-06T11:31:54.579Z,24.50
2019-02-06T11:34:24.330Z,20.90
2019-02-06T11:36:53.970Z,22.58
2019-02-06T11:39:24.230Z,24.05
2019-02-06T11:41:54.021Z,21.85
2019-02-06T11:44:23.807Z,28.15
2019-02-06T11:46:53.959Z,19.17
2019-02-06T11:49:28.548Z,23.50
2019-02-06T11:51:58.141Z,20.70
2019-02-06T11:54:28.225Z,24.92
2019-02-06T11:56:58.087Z,25.77
2019-02-06T11:59:27.866Z,20.17
2019-02-06T12:01:57.547Z,24.75
2019-02-06T12:04:27.228Z,21.60
2019-02-06T12:06:56.842Z,18.20
2019-02-06T12:09:26.520Z,20.92
2019-02-06T12:11:56.525Z,19.00
2019-02-06T12:14:26.174Z,18.87
2019-02-06T12:16:55.749Z,17.30
2019-02-06T12:19:25.358Z,18.37
2019-02-06T12:21:54.955Z,16.90
2019-02-06T12:24:24.885Z,15.23
2019-02-06T12:26:54.947Z,15.68
2019-02-06T12:29:24.632Z,18.48
2019-02-06T12:31:54.407Z,16.85
2019-02-06T12:34:24.107Z,16.73
2019-02-06T12:36:53.752Z,16.85
2019-02-06T12:39:23.390Z,13.78
2019-02-06T12:41:52.968Z,15.35
2019-02-06T12:44:22.859Z,18.48
2019-02-06T12:46:52.626Z,15.78
2019-02-06T12:49:22.471Z,16.95
2019-02-06T12:51:52.562Z,14.45
2019-02-06T12:54:22.443Z,15.80
2019-02-06T12:56:52.184Z,16.42
2019-02-06T12:59:22.038Z,21.35
2019-02-06T13:01:51.706Z,20.72
2019-02-06T13:04:21.651Z,22.27
2019-02-06T13:06:51.439Z,19.35
2019-02-06T13:09:21.053Z,20.35
2019-02-06T13:11:50.751Z,20.80
2019-02-06T13:14:20.403Z,19.07
2019-02-06T13:16:50.073Z,23.87
2019-02-06T13:19:19.724Z,17.65
2019-02-06T13:21:49.484Z,18.55
2019-02-06T13:24:19.116Z,20.72
2019-02-06T13:26:48.854Z,17.82
2019-02-06T13:29:18.497Z,17.50
2019-02-06T13:31:48.184Z,19.62
2019-02-06T13:34:17.975Z,17.48
2019-02-06T13:36:47.874Z,23.10
2019-02-06T13:39:18.277Z,19.05
2019-02-06T13:41:48.047Z,20.85
2019-02-06T13:44:18.061Z,22.25
2019-02-06T13:46:53.277Z,17.65
2019-02-06T13:49:19.029Z,17.48
2019-02-06T13:51:48.716Z,18.02
2019-02-06T13:54:18.381Z,27.00
2019-02-06T13:56:48.144Z,19.07
2019-02-06T13:59:17.918Z,15.90
2019-02-06T14:01:47.574Z,14.87
2019-02-06T14:04:17.428Z,19.82
2019-02-06T14:06:47.128Z,21.68
2019-02-06T14:09:22.588Z,17.52
2019-02-06T14:11:48.863Z,17.67
2019-02-06T14:14:18.491Z,17.77
2019-02-06T14:16:48.327Z,18.48
2019-02-06T14:19:18.242Z,20.90
2019-02-06T14:21:48.032Z,19.00
2019-02-06T14:24:53.242Z,18.42
2019-02-06T14:27:45.591Z,18.87
2019-02-06T14:30:57.709Z,23.18
2019-02-06T14:33:56.933Z,16.48
2019-02-06T14:36:50.061Z,21.37
2019-02-06T14:39:57.116Z,23.35
2019-02-06T14:42:38.704Z,21.48
2019-02-06T14:45:47.937Z,23.02
2019-02-06T14:48:46.017Z,26.10
2019-02-06T14:52:08.923Z,20.82
2019-02-06T14:55:25.202Z,21.52
2019-02-06T14:58:21.279Z,21.02
2019-02-06T15:01:41.391Z,27.42
2019-02-06T15:05:07.184Z,19.50
2019-02-06T15:11:21.067Z,17.80
2019-02-06T15:14:31.644Z,26.95
2019-02-06T15:17:59.840Z,18.17
2019-02-06T15:21:16.588Z,20.37
2019-02-06T15:24:29.955Z,19.32
2019-02-06T15:27:32.227Z,22.75
2019-02-06T15:30:23.551Z,24.55
2019-02-06T15:33:20.666Z,20.30
2019-02-06T15:36:34.440Z,19.10
2019-02-06T15:39:54.483Z,18.25
2019-02-06T15:42:54.552Z,20.80
2019-02-06T15:46:24.301Z,20.00
2019-02-06T15:49:36.597Z,23.27
2019-02-06T15:52:29.196Z,23.65
2019-02-06T15:55:57.769Z,19.40
2019-02-06T15:59:32.482Z,16.97
2019-02-06T16:02:39.910Z,17.62
2019-02-06T16:05:52.155Z,20.95
2019-02-06T16:08:46.181Z,19.73
2019-02-06T16:11:58.456Z,20.97
2019-02-06T16:14:52.870Z,23.18
2019-02-06T16:18:05.301Z,21.42
2019-02-06T16:21:21.564Z,22.00
2019-02-06T16:24:35.150Z,22.17
2019-02-06T16:27:25.720Z,21.55
2019-02-06T16:30:34.924Z,24.12
2019-02-06T16:33:23.598Z,22.60
2019-02-06T16:36:24.691Z,24.95
2019-02-06T16:39:34.075Z,22.85
2019-02-06T16:42:59.813Z,30.23
2019-02-06T16:45:55.530Z,21.10
2019-02-06T16:49:02.022Z,23.10
2019-02-06T16:51:48.782Z,21.75
2019-02-06T16:54:59.195Z,22.60
2019-02-06T16:58:12.909Z,24.37
2019-02-06T17:01:12.985Z,20.23
2019-02-06T17:04:27.520Z,31.17
2019-02-06T17:07:09.764Z,26.60
2019-02-06T17:10:20.030Z,26.30
2019-02-06T17:13:22.059Z,22.60
2019-02-06T17:16:44.258Z,24.77
2019-02-06T17:19:36.729Z,22.95
2019-02-06T17:22:59.417Z,19.67
2019-02-06T17:26:01.388Z,24.05
2019-02-06T17:28:45.878Z,24.87
2019-02-06T17:32:00.071Z,23.40
2019-02-06T17:35:10.550Z,24.60
2019-02-06T17:38:27.561Z,20.55
2019-02-06T17:41:24.158Z,25.23
2019-02-06T17:44:16.470Z,22.62
2019-02-06T17:47:23.075Z,22.27
2019-02-06T17:50:32.411Z,23.27
2019-02-06T17:53:47.940Z,26.65
2019-02-06T17:56:18.650Z,28.32
2019-02-06T17:58:48.386Z,22.13
2019-02-06T18:01:25.141Z,26.37
2019-02-06T18:03:58.355Z,31.55
2019-02-06T18:06:28.036Z,19.60
2019-02-06T18:08:57.670Z,24.30
2019-02-06T18:11:27.334Z,21.95
2019-02-06T18:13:57.015Z,29.75
2019-02-06T18:16:27.058Z,27.17
2019-02-06T18:18:56.718Z,25.30
2019-02-06T18:21:26.332Z,25.30
2019-02-06T18:23:56.015Z,22.82
2019-02-06T18:26:25.685Z,30.50
2019-02-06T18:28:55.392Z,26.07
2019-02-06T18:31:25.178Z,29.20
2019-02-06T18:33:54.875Z,24.98
2019-02-06T18:36:24.491Z,27.82
2019-02-06T18:38:54.386Z,24.57
2019-02-06T18:41:24.230Z,20.35
2019-02-06T18:43:53.862Z,27.05
2019-02-06T18:46:23.535Z,27.32
2019-02-06T18:48:53.171Z,26.07
2019-02-06T18:51:22.919Z,25.02
2019-02-06T18:53:52.565Z,20.02
2019-02-06T18:56:22.215Z,23.47
2019-02-06T18:58:51.908Z,22.27
2019-02-06T19:01:21.672Z,27.37
2019-02-06T19:03:51.759Z,24.27
2019-02-06T19:06:21.588Z,27.17
2019-02-06T19:08:51.266Z,21.37
2019-02-06T19:11:20.957Z,27.10
2019-02-06T19:13:50.665Z,26.82
2019-02-06T19:16:20.416Z,26.65
2019-02-06T19:18:50.167Z,27.15
2019-02-06T19:21:20.111Z,30.75
2019-02-06T19:23:49.808Z,24.32
2019-02-06T19:26:19.483Z,22.40
2019-02-06T19:28:49.173Z,25.17
2019-02-06T19:31:18.811Z,30.08
2019-02-06T19:33:48.484Z,29.15
2019-02-06T19:36:18.154Z,29.55
2019-02-06T19:38:47.861Z,23.47
2019-02-06T19:41:17.500Z,29.52
2019-02-06T19:43:47.307Z,27.27
2019-02-06T19:46:17.016Z,24.07
2019-02-06T19:48:46.725Z,24.70
2019-02-06T19:51:16.446Z,27.22
2019-02-06T19:53:46.408Z,23.02
2019-02-06T19:56:16.064Z,26.95
2019-02-06T19:58:45.769Z,24.10
2019-02-06T20:01:15.414Z,25.23
2019-02-06T20:03:45.097Z,25.27
2019-02-06T20:06:30.551Z,24.32
2019-02-06T20:09:08.535Z,28.70
2019-02-06T20:11:38.304Z,24.40
2019-02-06T20:14:08.000Z,26.65
2019-02-06T20:16:37.756Z,25.15
2019-02-06T20:19:07.557Z,22.45
2019-02-06T20:21:37.215Z,27.50
2019-02-06T20:24:07.373Z,27.98
2019-02-06T20:26:37.029Z,27.10
2019-02-06T20:29:06.763Z,28.42
2019-02-06T20:31:36.386Z,27.48
2019-02-06T20:34:06.109Z,24.40
2019-02-06T20:36:35.771Z,25.77
2019-02-06T20:39:08.819Z,26.73
2019-02-06T20:41:38.479Z,28.17
2019-02-06T20:44:08.242Z,28.17
2019-02-06T20:46:37.946Z,25.57
2019-02-06T20:49:07.672Z,25.52
2019-02-06T20:51:37.312Z,23.45
2019-02-06T20:54:07.269Z,24.15
2019-02-06T20:56:36.925Z,25.70
2019-02-06T20:59:06.606Z,25.17
2019-02-06T21:01:36.284Z,31.77
2019-02-06T21:04:06.056Z,23.92
2019-02-06T21:06:35.722Z,22.07
2019-02-06T21:09:11.003Z,27.02
2019-02-06T21:11:40.687Z,25.37
2019-02-06T21:14:10.384Z,27.58
2019-02-06T21:16:40.059Z,26.12
2019-02-06T21:19:09.713Z,18.85
2019-02-06T21:21:39.366Z,25.90
2019-02-06T21:24:09.387Z,22.22
2019-02-06T21:26:39.079Z,25.20
2019-02-06T21:29:08.763Z,29.27
2019-02-06T21:31:38.448Z,22.75
2019-02-06T21:34:08.294Z,23.18
2019-02-06T21:36:38.028Z,20.80
2019-02-06T21:39:09.865Z,21.05
2019-02-06T21:41:39.563Z,23.95
2019-02-06T21:44:09.306Z,24.52
2019-02-06T21:46:38.978Z,28.12
2019-02-06T21:49:08.703Z,21.82
2019-02-06T21:51:38.696Z,21.97
2019-02-06T21:54:08.590Z,18.35
2019-02-06T21:56:38.246Z,24.12
2019-02-06T21:59:07.950Z,20.25
2019-02-06T22:01:45.535Z,27.40
2019-02-06T22:04:15.383Z,27.52
2019-02-06T22:06:45.453Z,27.20
2019-02-06T22:09:15.142Z,23.90
2019-02-06T22:11:44.803Z,21.87
2019-02-06T22:14:14.492Z,28.90
2019-02-06T22:16:43.956Z,29.80
2019-02-06T22:19:13.462Z,25.08
2019-02-06T22:21:42.874Z,19.82
2019-02-06T22:24:12.417Z,24.98
2019-02-06T22:26:41.930Z,21.85
2019-02-06T22:29:11.479Z,22.70
2019-02-06T22:31:40.847Z,21.97
2019-02-06T22:34:10.291Z,24.52
2019-02-06T22:36:39.688Z,22.70
2019-02-06T22:39:11.978Z,25.23
2019-02-06T22:41:41.353Z,26.37
2019-02-06T22:44:10.860Z,25.97
2019-02-06T22:46:40.389Z,26.87
2019-02-06T22:49:10.166Z,25.62
2019-02-06T22:51:39.560Z,22.90
2019-02-06T22:54:08.989Z,22.62
2019-02-06T22:56:41.114Z,23.80
2019-02-06T22:59:09.580Z,23.52
2019-02-06T23:01:53.734Z,20.40
2019-02-06T23:04:23.156Z,22.35
2019-02-06T23:06:52.626Z,24.95
2019-02-06T23:09:22.777Z,22.98
2019-02-06T23:11:52.468Z,22.22
2019-02-06T23:14:21.860Z,21.95
2019-02-06T23:16:51.366Z,23.60
2019-02-06T23:19:20.850Z,18.87
2019-02-06T23:21:50.352Z,18.80
2019-02-06T23:24:19.835Z,18.05
2019-02-06T23:26:49.368Z,23.92
2019-02-06T23:29:19.157Z,25.97
2019-02-06T23:31:48.629Z,24.25
2019-02-06T23:34:18.064Z,24.60
2019-02-06T23:36:47.467Z,22.62
2019-02-06T23:39:18.352Z,25.17
2019-02-06T23:41:47.764Z,23.02
2019-02-06T23:44:28.334Z,26.15
2019-02-06T23:46:48.773Z,19.65
2019-02-06T23:49:18.211Z,23.02
2019-02-06T23:51:47.724Z,20.68
2019-02-06T23:54:17.216Z,20.32
2019-02-06T23:56:46.695Z,25.32
2019-02-06T23:59:16.089Z,28.15
